createdAt,value
2022-12-15T00:01:46.267Z,97693.34
2022-12-15T00:04:31.736Z,97696.59
2022-12-15T00:07:17.315Z,97695.28
2022-12-15T00:10:03.019Z,97699.34
2022-12-15T00:12:48.396Z,97696.44
2022-12-15T00:15:33.944Z,97699.19
2022-12-15T00:18:26.108Z,97678.78
2022-12-15T00:21:16.185Z,97702.75
2022-12-15T00:24:01.491Z,97705.19
2022-12-15T00:26:47.217Z,97706.56
2022-12-15T00:29:33.393Z,97709.81
2022-12-15T00:32:19.061Z,97719.25
2022-12-15T00:35:04.620Z,97719.25
2022-12-15T00:37:50.311Z,97719.53
2022-12-15T00:40:17.311Z,97728.13
2022-12-15T00:42:44.372Z,97717.97
2022-12-15T00:45:14.713Z,97724.72
2022-12-15T00:47:41.900Z,97700.25
2022-12-15T00:50:27.652Z,97733.31
2022-12-15T00:53:13.108Z,97741.66
2022-12-15T00:55:58.522Z,97748.88
2022-12-15T00:58:44.512Z,97751.91
2022-12-15T01:01:30.237Z,97758.63
2022-12-15T01:04:16.021Z,97763.19
2022-12-15T01:07:01.463Z,97766.44
2022-12-15T01:09:46.992Z,97776.63
2022-12-15T01:12:32.475Z,97771.84
2022-12-15T01:15:18.206Z,97775.38
2022-12-15T01:18:03.944Z,97776.75
2022-12-15T01:20:34.647Z,97780.50
2022-12-15T01:23:01.741Z,97781.88
2022-12-15T01:25:29.138Z,97778.41
2022-12-15T01:27:56.270Z,97786.69
2022-12-15T01:30:24.973Z,97784.56
2022-12-15T01:32:51.876Z,97778.41
2022-12-15T01:35:19.361Z,97774.34
2022-12-15T01:37:46.325Z,97782.94
2022-12-15T01:40:36.336Z,97781.06
2022-12-15T01:43:03.281Z,97788.28
2022-12-15T01:45:30.048Z,97782.94
2022-12-15T01:48:03.362Z,97786.97
2022-12-15T01:50:30.322Z,97793.94
2022-12-15T01:52:57.187Z,97786.97
2022-12-15T01:55:25.696Z,97791.53
2022-12-15T01:57:52.818Z,97790.50
2022-12-15T02:00:19.774Z,97792.41
2022-12-15T02:02:46.783Z,97797.22
2022-12-15T02:05:13.687Z,97807.13
2022-12-15T02:07:40.672Z,97804.72
2022-12-15T02:10:10.334Z,97806.13
2022-12-15T02:12:37.121Z,97806.13
2022-12-15T02:15:31.765Z,97800.75
2022-12-15T02:18:04.245Z,97810.16
2022-12-15T02:20:44.645Z,97810.72
2022-12-15T02:23:45.787Z,97810.72
2022-12-15T02:26:27.572Z,97810.97
2022-12-15T02:29:31.749Z,97803.25
2022-12-15T02:32:15.385Z,97803.28
2022-12-15T02:34:46.450Z,97812.41
2022-12-15T02:37:20.978Z,97816.38
2022-12-15T02:39:47.871Z,97819.59
2022-12-15T02:42:14.889Z,97823.09
2022-12-15T02:44:49.459Z,97778.63
2022-12-15T02:47:28.750Z,97831.16
2022-12-15T02:50:30.955Z,97834.63
2022-12-15T02:53:00.817Z,97836.78
2022-12-15T02:55:39.528Z,97838.13
2022-12-15T02:58:44.328Z,97839.22
2022-12-15T03:01:22.030Z,97845.94
2022-12-15T03:03:49.032Z,97813.91
2022-12-15T03:06:16.153Z,97822.66
2022-12-15T03:08:43.609Z,97852.06
2022-12-15T03:11:10.522Z,97857.69
2022-12-15T03:13:37.416Z,97858.69
2022-12-15T03:16:04.365Z,97858.56
2022-12-15T03:18:31.330Z,97859.69
2022-12-15T03:20:58.190Z,97863.25
2022-12-15T03:23:25.174Z,97835.94
2022-12-15T03:25:52.266Z,97875.16
2022-12-15T03:28:19.305Z,97848.78
2022-12-15T03:30:46.244Z,97878.31
2022-12-15T03:33:17.586Z,97886.59
2022-12-15T03:35:44.445Z,97889.75
2022-12-15T03:38:11.442Z,97893.16
2022-12-15T03:40:38.409Z,97887.38
2022-12-15T03:43:05.337Z,97886.44
2022-12-15T03:45:32.473Z,97900.41
2022-12-15T03:47:59.455Z,97896.75
2022-12-15T03:50:27.420Z,97860.03
2022-12-15T03:52:56.389Z,97904.06
2022-12-15T03:55:23.688Z,97884.03
2022-12-15T03:57:51.246Z,97917.16
2022-12-15T04:00:18.956Z,97924.13
2022-12-15T04:02:46.435Z,97926.00
2022-12-15T04:05:20.363Z,97926.56
2022-12-15T04:07:47.283Z,97930.34
2022-12-15T04:10:14.286Z,97929.16
2022-12-15T04:12:41.373Z,97934.44
2022-12-15T04:15:08.951Z,97935.38
2022-12-15T04:17:35.973Z,97912.06
2022-12-15T04:20:09.655Z,97933.97
2022-12-15T04:22:41.284Z,97917.94
2022-12-15T04:25:28.747Z,97941.03
2022-12-15T04:28:14.358Z,97942.22
2022-12-15T04:31:03.085Z,97931.25
2022-12-15T04:33:48.555Z,97948.31
2022-12-15T04:36:34.088Z,97955.22
2022-12-15T04:39:19.524Z,97958.59
2022-12-15T04:42:05.177Z,97958.91
2022-12-15T04:44:50.942Z,97974.97
2022-12-15T04:47:36.862Z,97985.13
2022-12-15T04:50:22.623Z,97988.41
2022-12-15T04:53:08.473Z,97996.34
2022-12-15T04:55:55.045Z,97999.44
2022-12-15T04:58:40.658Z,97994.50
2022-12-15T05:01:26.257Z,97999.34
2022-12-15T05:04:12.106Z,98004.19
2022-12-15T05:06:57.589Z,98006.66
2022-12-15T05:09:43.300Z,98002.81
2022-12-15T05:12:28.812Z,98004.78
2022-12-15T05:15:14.629Z,98016.38
2022-12-15T05:17:59.953Z,98013.75
2022-12-15T05:20:45.558Z,98013.81
2022-12-15T05:23:35.557Z,98014.81
2022-12-15T05:26:21.687Z,98042.09
2022-12-15T05:29:07.096Z,98047.09
2022-12-15T05:31:52.028Z,98052.22
2022-12-15T05:34:23.159Z,98058.91
2022-12-15T05:36:50.642Z,98030.47
2022-12-15T05:39:17.923Z,98059.78
2022-12-15T05:41:44.894Z,98061.28
2022-12-15T05:44:11.962Z,98080.47
2022-12-15T05:46:38.996Z,98064.44
2022-12-15T05:49:09.920Z,98073.00
2022-12-15T05:51:38.403Z,98087.59
2022-12-15T05:54:05.390Z,98085.66
2022-12-15T05:56:32.404Z,98085.31
2022-12-15T05:58:59.436Z,98094.38
2022-12-15T06:01:26.555Z,98080.81
2022-12-15T06:03:53.529Z,98091.72
2022-12-15T06:06:20.572Z,98102.25
2022-12-15T06:08:47.433Z,98109.81
2022-12-15T06:11:18.206Z,98107.84
2022-12-15T06:13:45.361Z,98102.75
2022-12-15T06:16:12.277Z,98115.25
2022-12-15T06:18:41.305Z,98121.84
2022-12-15T06:21:13.785Z,98123.44
2022-12-15T06:23:41.121Z,98135.06
2022-12-15T06:26:18.251Z,98135.16
2022-12-15T06:28:46.233Z,98132.00
2022-12-15T06:31:13.446Z,98134.56
2022-12-15T06:33:40.621Z,98138.59
2022-12-15T06:36:09.749Z,98144.47
2022-12-15T06:38:39.058Z,98146.88
2022-12-15T06:41:06.731Z,98146.94
2022-12-15T06:43:34.420Z,98153.97
2022-12-15T06:46:04.598Z,98153.56
2022-12-15T06:48:31.783Z,98167.31
2022-12-15T06:51:06.021Z,98167.75
2022-12-15T06:53:35.915Z,98132.34
2022-12-15T06:56:03.209Z,98181.25
2022-12-15T06:58:30.634Z,98192.25
2022-12-15T07:00:57.947Z,98189.53
2022-12-15T07:03:25.287Z,98196.13
2022-12-15T07:06:01.653Z,98192.69
2022-12-15T07:08:32.178Z,98224.09
2022-12-15T07:11:03.874Z,98212.19
2022-12-15T07:13:31.302Z,98167.38
2022-12-15T07:15:59.950Z,98219.41
2022-12-15T07:18:27.581Z,98215.59
2022-12-15T07:20:54.608Z,98223.78
2022-12-15T07:23:39.714Z,98218.06
2022-12-15T07:26:11.609Z,98226.41
2022-12-15T07:28:39.063Z,98207.59
2022-12-15T07:31:07.413Z,98228.84
2022-12-15T07:33:34.963Z,98228.38
2022-12-15T07:36:02.334Z,98212.84
2022-12-15T07:38:29.493Z,98249.69
2022-12-15T07:41:00.683Z,98243.00
2022-12-15T07:43:28.581Z,98247.97
2022-12-15T07:45:55.862Z,98253.66
2022-12-15T07:48:23.935Z,98268.41
2022-12-15T07:51:02.811Z,98250.25
2022-12-15T07:53:35.083Z,98281.66
2022-12-15T07:56:10.323Z,98286.47
2022-12-15T07:58:38.169Z,98298.59
2022-12-15T08:01:06.880Z,98301.19
2022-12-15T08:03:35.738Z,98303.03
2022-12-15T08:06:07.396Z,98304.84
2022-12-15T08:08:35.375Z,98281.78
2022-12-15T08:11:06.424Z,98276.84
2022-12-15T08:16:21.546Z,98294.78
2022-12-15T08:18:49.091Z,98267.66
2022-12-15T08:21:16.199Z,98304.53
2022-12-15T08:23:43.303Z,98302.75
2022-12-15T08:26:12.199Z,98304.81
2022-12-15T08:28:39.717Z,98320.31
2022-12-15T08:31:11.238Z,98317.72
2022-12-15T08:33:38.176Z,98316.19
2022-12-15T08:36:06.868Z,98298.47
2022-12-15T08:38:33.805Z,98250.38
2022-12-15T08:41:14.471Z,98310.06
2022-12-15T08:43:47.978Z,98314.78
2022-12-15T08:46:17.117Z,98303.69
2022-12-15T08:48:44.291Z,98325.81
2022-12-15T08:51:12.082Z,98306.47
2022-12-15T08:53:39.120Z,98328.97
2022-12-15T08:56:07.329Z,98339.47
2022-12-15T08:58:34.598Z,98335.84
2022-12-15T09:01:06.502Z,98349.13
2022-12-15T09:03:34.728Z,98348.31
2022-12-15T09:06:06.710Z,98320.50
2022-12-15T09:08:34.264Z,98326.53
2022-12-15T09:11:01.637Z,98350.47
2022-12-15T09:13:28.978Z,98344.19
2022-12-15T09:16:09.559Z,98304.09
2022-12-15T09:18:37.209Z,98356.25
2022-12-15T09:21:05.433Z,98330.84
2022-12-15T09:23:33.264Z,98364.84
2022-12-15T09:26:04.917Z,98359.28
2022-12-15T09:28:34.892Z,98353.09
2022-12-15T09:31:05.405Z,98375.63
2022-12-15T09:33:33.037Z,98364.59
2022-12-15T09:36:00.425Z,98366.84
2022-12-15T09:38:27.617Z,98341.28
2022-12-15T09:40:54.549Z,98362.94
2022-12-15T09:43:34.945Z,98368.78
2022-12-15T09:46:08.780Z,98350.78
2022-12-15T09:48:40.491Z,98347.38
2022-12-15T09:51:09.217Z,98369.59
2022-12-15T09:56:49.938Z,98354.88
2022-12-15T09:59:32.923Z,98345.06
2022-12-15T10:02:21.267Z,98341.06
2022-12-15T10:05:38.114Z,98338.31
2022-12-15T10:08:13.911Z,98302.84
2022-12-15T10:10:57.207Z,98312.78
2022-12-15T10:13:45.715Z,98337.00
2022-12-15T10:16:20.891Z,98348.81
2022-12-15T10:19:20.778Z,98361.38
2022-12-15T10:21:50.576Z,98348.06
2022-12-15T10:24:44.536Z,98348.34
2022-12-15T10:27:44.586Z,98355.03
2022-12-15T10:30:13.046Z,98370.56
2022-12-15T10:33:02.154Z,98376.94
2022-12-15T10:35:34.305Z,98381.22
2022-12-15T10:38:04.176Z,98364.53
2022-12-15T10:40:56.575Z,98383.38
2022-12-15T10:43:34.697Z,98382.00
2022-12-15T10:46:01.975Z,98381.16
2022-12-15T10:48:29.185Z,98376.38
2022-12-15T10:51:21.142Z,98390.75
2022-12-15T10:53:54.038Z,98372.72
2022-12-15T10:56:32.751Z,98388.84
2022-12-15T10:59:21.558Z,98395.28
2022-12-15T11:01:48.817Z,98398.78
2022-12-15T11:04:27.934Z,98400.91
2022-12-15T11:07:02.073Z,98395.06
2022-12-15T11:09:37.027Z,98368.25
2022-12-15T11:12:41.980Z,98355.34
2022-12-15T11:15:32.358Z,98403.03
2022-12-15T11:18:11.282Z,98385.22
2022-12-15T11:20:40.875Z,98407.38
2022-12-15T11:23:16.813Z,98408.66
2022-12-15T11:26:20.255Z,98408.25
2022-12-15T11:29:01.880Z,98387.25
2022-12-15T11:31:43.048Z,98372.78
2022-12-15T11:34:18.380Z,98398.63
2022-12-15T11:37:06.949Z,98403.31
2022-12-15T11:39:43.114Z,98403.81
2022-12-15T11:42:31.859Z,98400.72
2022-12-15T11:45:21.576Z,98396.53
2022-12-15T11:48:19.896Z,98399.41
2022-12-15T11:50:53.897Z,98390.41
2022-12-15T11:53:41.823Z,98396.69
2022-12-15T11:56:33.123Z,98395.53
2022-12-15T11:59:32.673Z,98379.16
2022-12-15T12:02:03.290Z,98361.88
2022-12-15T12:04:43.737Z,98349.84
2022-12-15T12:07:38.475Z,98386.16
2022-12-15T12:10:28.814Z,98388.91
2022-12-15T12:13:21.279Z,98392.09
2022-12-15T12:16:01.099Z,98361.25
2022-12-15T12:18:31.684Z,98400.38
2022-12-15T12:21:05.434Z,98391.72
2022-12-15T12:23:40.330Z,98386.97
2022-12-15T12:26:26.771Z,98361.75
2022-12-15T12:28:59.289Z,98380.38
2022-12-15T12:31:41.375Z,98351.50
2022-12-15T12:34:14.288Z,98372.88
2022-12-15T12:36:42.298Z,98385.06
2022-12-15T12:39:10.620Z,98385.84
2022-12-15T12:41:49.307Z,98374.84
2022-12-15T12:44:36.010Z,98368.19
2022-12-15T12:47:15.201Z,98374.97
2022-12-15T12:49:44.381Z,98361.63
2022-12-15T12:52:21.618Z,98355.09
2022-12-15T12:54:56.106Z,98361.78
2022-12-15T12:57:39.786Z,98374.34
2022-12-15T13:00:21.459Z,98371.34
2022-12-15T13:03:21.074Z,98374.97
2022-12-15T13:05:50.505Z,98375.06
2022-12-15T13:08:26.014Z,98354.97
2022-12-15T13:10:53.242Z,98379.56
2022-12-15T13:13:29.817Z,98384.88
2022-12-15T13:16:03.072Z,98388.91
2022-12-15T13:18:30.550Z,98407.84
2022-12-15T13:20:58.028Z,98414.59
2022-12-15T13:23:25.914Z,98415.66
2022-12-15T13:25:55.915Z,98406.28
2022-12-15T13:28:36.079Z,98398.69
2022-12-15T13:31:13.536Z,98406.56
2022-12-15T13:33:55.836Z,98401.47
2022-12-15T13:36:38.433Z,98411.91
2022-12-15T13:39:25.201Z,98433.84
2022-12-15T13:44:46.742Z,98427.94
2022-12-15T13:47:29.449Z,98455.44
2022-12-15T13:50:02.911Z,98456.81
2022-12-15T13:55:37.209Z,98467.06
2022-12-15T13:58:11.374Z,98462.41
2022-12-15T14:00:38.645Z,98473.16
2022-12-15T14:03:09.461Z,98469.81
2022-12-15T14:05:37.859Z,98469.09
2022-12-15T14:08:09.614Z,98443.94
2022-12-15T14:10:42.335Z,98461.69
2022-12-15T14:13:32.010Z,98463.34
2022-12-15T14:16:14.950Z,98470.78
2022-12-15T14:18:42.110Z,98435.63
2022-12-15T14:21:20.865Z,98476.06
2022-12-15T14:24:11.292Z,98472.97
2022-12-15T14:26:34.945Z,98478.56
2022-12-15T14:29:03.785Z,98480.25
2022-12-15T14:31:30.963Z,98474.88
2022-12-15T14:34:02.529Z,98452.16
2022-12-15T14:36:30.773Z,98492.59
2022-12-15T14:38:59.484Z,98484.44
2022-12-15T14:41:31.845Z,98483.38
2022-12-15T14:44:32.179Z,98477.50
2022-12-15T14:46:52.147Z,98479.59
2022-12-15T14:49:24.110Z,98483.97
2022-12-15T14:51:52.958Z,98448.75
2022-12-15T14:54:35.873Z,98480.16
2022-12-15T14:57:13.861Z,98487.44
2022-12-15T14:59:43.244Z,98485.19
2022-12-15T15:02:22.945Z,98476.66
2022-12-15T15:04:56.964Z,98483.16
2022-12-15T15:07:24.181Z,98486.03
2022-12-15T15:09:51.196Z,98488.19
2022-12-15T15:12:20.290Z,98480.13
2022-12-15T15:14:48.977Z,98479.44
2022-12-15T15:17:33.862Z,98475.69
2022-12-15T15:20:02.117Z,98485.47
2022-12-15T15:22:42.778Z,98486.00
2022-12-15T15:25:58.063Z,98492.47
2022-12-15T15:28:29.673Z,98474.94
2022-12-15T15:31:05.554Z,98483.34
2022-12-15T15:33:32.648Z,98478.56
2022-12-15T15:36:01.137Z,98474.47
2022-12-15T15:38:33.327Z,98434.50
2022-12-15T15:41:03.319Z,98465.53
2022-12-15T15:43:30.295Z,98491.44
2022-12-15T15:46:08.790Z,98493.88
2022-12-15T15:49:03.416Z,98490.13
2022-12-15T15:51:30.685Z,98484.28
2022-12-15T15:54:10.698Z,98490.09
2022-12-15T15:56:37.570Z,98499.13
2022-12-15T15:59:13.645Z,98501.25
2022-12-15T16:01:40.996Z,98466.03
2022-12-15T16:04:08.100Z,98477.47
2022-12-15T16:06:35.149Z,98513.91
2022-12-15T16:09:02.033Z,98525.31
2022-12-15T16:11:30.112Z,98513.81
2022-12-15T16:13:56.953Z,98504.91
2022-12-15T16:16:28.510Z,98500.00
2022-12-15T16:18:55.385Z,98485.84
2022-12-15T16:21:23.338Z,98512.53
2022-12-15T16:23:50.307Z,98505.53
2022-12-15T16:26:21.263Z,98489.22
2022-12-15T16:28:48.186Z,98491.19
2022-12-15T16:31:16.036Z,98485.47
2022-12-15T16:33:42.880Z,98477.34
2022-12-15T16:36:13.494Z,98480.53
2022-12-15T16:38:40.796Z,98478.97
2022-12-15T16:41:08.326Z,98479.31
2022-12-15T16:43:39.140Z,98473.09
2022-12-15T16:46:12.436Z,98483.00
2022-12-15T16:48:39.536Z,98487.66
2022-12-15T16:51:07.506Z,98482.38
2022-12-15T16:53:36.773Z,98482.06
2022-12-15T16:56:05.823Z,98483.84
2022-12-15T16:58:34.435Z,98477.44
2022-12-15T17:01:01.701Z,98477.94
2022-12-15T17:03:28.778Z,98478.72
2022-12-15T17:05:57.198Z,98477.13
2022-12-15T17:08:30.299Z,98469.44
2022-12-15T17:10:57.635Z,98469.25
2022-12-15T17:13:45.444Z,98463.66
2022-12-15T17:16:14.602Z,98437.31
2022-12-15T17:18:42.883Z,98459.97
2022-12-15T17:21:19.303Z,98456.47
2022-12-15T17:23:49.273Z,98461.72
2022-12-15T17:26:29.189Z,98461.56
2022-12-15T17:29:02.226Z,98466.34
2022-12-15T17:31:35.326Z,98471.44
2022-12-15T17:34:35.600Z,98473.81
2022-12-15T17:37:04.392Z,98480.16
2022-12-15T17:39:31.926Z,98485.56
2022-12-15T17:42:00.989Z,98492.53
2022-12-15T17:44:37.329Z,98496.66
2022-12-15T17:47:06.289Z,98500.16
2022-12-15T17:49:36.418Z,98483.31
2022-12-15T17:52:17.698Z,98510.47
2022-12-15T17:54:44.553Z,98514.75
2022-12-15T17:57:11.605Z,98519.16
2022-12-15T17:59:38.545Z,98530.28
2022-12-15T18:02:05.505Z,98534.66
2022-12-15T18:04:32.475Z,98515.56
2022-12-15T18:07:02.075Z,98547.16
2022-12-15T18:09:29.761Z,98530.75
2022-12-15T18:11:56.588Z,98527.03
2022-12-15T18:14:23.537Z,98536.38
2022-12-15T18:16:50.362Z,98533.50
2022-12-15T18:19:17.176Z,98535.84
2022-12-15T18:21:44.040Z,98522.91
2022-12-15T18:24:14.960Z,98508.81
2022-12-15T18:26:41.838Z,98506.22
2022-12-15T18:29:17.966Z,98499.22
2022-12-15T18:31:48.390Z,98494.22
2022-12-15T18:34:21.055Z,98490.34
2022-12-15T18:36:48.151Z,98478.03
2022-12-15T18:39:23.804Z,98459.63
2022-12-15T18:41:51.454Z,98466.94
2022-12-15T18:44:25.912Z,98460.06
2022-12-15T18:46:52.999Z,98417.84
2022-12-15T18:49:22.473Z,98447.75
2022-12-15T18:51:49.446Z,98454.06
2022-12-15T18:54:17.935Z,98453.06
2022-12-15T18:56:44.843Z,98450.06
2022-12-15T18:59:15.968Z,98451.69
2022-12-15T19:01:47.085Z,98415.97
2022-12-15T19:04:14.485Z,98450.66
2022-12-15T19:06:41.349Z,98446.97
2022-12-15T19:09:14.647Z,98447.59
2022-12-15T19:12:01.486Z,98466.59
2022-12-15T19:14:40.452Z,98475.13
2022-12-15T19:17:29.126Z,98477.63
2022-12-15T19:20:14.724Z,98474.50
2022-12-15T19:22:41.645Z,98478.91
2022-12-15T19:25:11.419Z,98476.31
2022-12-15T19:27:38.272Z,98483.41
2022-12-15T19:30:06.760Z,98467.91
2022-12-15T19:32:33.691Z,98467.97
2022-12-15T19:35:00.945Z,98464.38
2022-12-15T19:37:29.618Z,98427.88
2022-12-15T19:39:57.579Z,98459.66
2022-12-15T19:42:33.487Z,98456.47
2022-12-15T19:45:01.533Z,98420.25
2022-12-15T19:47:29.656Z,98446.16
2022-12-15T19:49:56.531Z,98446.25
2022-12-15T19:52:23.445Z,98446.94
2022-12-15T19:54:50.302Z,98444.81
2022-12-15T19:57:18.268Z,98446.53
2022-12-15T19:59:45.150Z,98450.69
2022-12-15T20:02:19.013Z,98417.13
2022-12-15T20:04:46.724Z,98439.06
2022-12-15T20:07:23.135Z,98439.16
2022-12-15T20:09:50.011Z,98433.91
2022-12-15T20:12:17.693Z,98452.50
2022-12-15T20:14:45.327Z,98449.09
2022-12-15T20:17:12.157Z,98452.91
2022-12-15T20:19:39.015Z,98451.84
2022-12-15T20:22:06.734Z,98452.38
2022-12-15T20:24:33.623Z,98444.44
2022-12-15T20:27:00.480Z,98430.47
2022-12-15T20:29:31.831Z,98407.28
2022-12-15T20:31:59.028Z,98439.56
2022-12-15T20:34:25.928Z,98425.56
2022-12-15T20:36:52.775Z,98428.28
2022-12-15T20:39:27.063Z,98429.28
2022-12-15T20:41:54.076Z,98429.06
2022-12-15T20:44:21.023Z,98423.97
2022-12-15T20:46:47.861Z,98417.53
2022-12-15T20:49:17.574Z,98414.34
2022-12-15T20:51:44.574Z,98371.84
2022-12-15T20:54:17.277Z,98362.75
2022-12-15T20:56:44.161Z,98396.56
2022-12-15T20:59:11.332Z,98393.41
2022-12-15T21:01:41.679Z,98392.41
2022-12-15T21:04:26.676Z,98391.66
2022-12-15T21:06:54.987Z,98366.69
2022-12-15T21:09:22.447Z,98384.81
2022-12-15T21:11:49.647Z,98383.94
2022-12-15T21:14:19.035Z,98382.34
2022-12-15T21:16:45.981Z,98378.03
2022-12-15T21:19:22.123Z,98374.91
2022-12-15T21:21:51.699Z,98361.78
2022-12-15T21:24:22.749Z,98356.13
2022-12-15T21:26:50.038Z,98358.06
2022-12-15T21:29:18.696Z,98368.31
2022-12-15T21:31:45.632Z,98359.25
2022-12-15T21:34:12.763Z,98353.63
2022-12-15T21:36:40.795Z,98357.97
2022-12-15T21:39:07.747Z,98367.16
2022-12-15T21:41:34.832Z,98372.00
2022-12-15T21:44:01.738Z,98360.22
2022-12-15T21:46:29.000Z,98356.06
2022-12-15T21:49:14.507Z,98371.13
2022-12-15T21:51:57.571Z,98337.19
2022-12-15T21:54:31.751Z,98363.31
2022-12-15T21:56:59.591Z,98364.75
2022-12-15T21:59:29.199Z,98366.94
2022-12-15T22:01:56.245Z,98368.09
2022-12-15T22:04:24.781Z,98362.19
2022-12-15T22:06:51.600Z,98358.47
2022-12-15T22:09:19.035Z,98351.47
2022-12-15T22:11:48.530Z,98360.63
2022-12-15T22:14:22.107Z,98352.63
2022-12-15T22:16:48.936Z,98359.09
2022-12-15T22:19:15.754Z,98338.66
2022-12-15T22:21:42.680Z,98322.00
2022-12-15T22:24:10.017Z,98324.16
2022-12-15T22:26:37.015Z,98323.38
2022-12-15T22:29:09.976Z,98327.16
2022-12-15T22:31:36.881Z,98323.25
2022-12-15T22:34:12.253Z,98317.63
2022-12-15T22:36:39.170Z,98315.75
2022-12-15T22:39:10.806Z,98319.22
2022-12-15T22:41:40.086Z,98309.88
2022-12-15T22:44:16.961Z,98248.13
2022-12-15T22:46:44.081Z,98301.88
2022-12-15T22:49:24.255Z,98300.63
2022-12-15T22:51:51.194Z,98303.94
2022-12-15T22:54:22.658Z,98292.94
2022-12-15T22:57:10.305Z,98261.66
2022-12-15T22:59:42.416Z,98296.13
2022-12-15T23:02:09.505Z,98291.63
2022-12-15T23:04:36.633Z,98292.97
2022-12-15T23:07:03.877Z,98274.97
2022-12-15T23:09:30.771Z,98273.09
2022-12-15T23:11:59.057Z,98269.91
2022-12-15T23:14:44.730Z,98261.88
2022-12-15T23:17:12.189Z,98230.13
2022-12-15T23:19:45.999Z,98266.72
2022-12-15T23:22:13.060Z,98249.84
2022-12-15T23:24:39.907Z,98268.25
2022-12-15T23:27:10.198Z,98241.28
2022-12-15T23:29:37.682Z,98275.50
2022-12-15T23:32:04.652Z,98266.91
2022-12-15T23:34:31.522Z,98278.56
2022-12-15T23:36:58.447Z,98286.59
2022-12-15T23:39:25.270Z,98288.75
2022-12-15T23:41:52.109Z,98276.97
2022-12-15T23:44:18.967Z,98287.19
2022-12-15T23:46:46.871Z,98278.63
2022-12-15T23:49:13.803Z,98275.69
2022-12-15T23:51:40.647Z,98270.09
2022-12-15T23:54:07.560Z,98273.03
2022-12-15T23:56:35.054Z,98275.22
2022-12-15T23:59:01.951Z,98266.34
